Dan Fighter — OVUE2 — position and weather

sailwx.info

Track history (hours):
 
Tides and Currents Weather Stations Pressure Air Temp Water Temp Dewpoint Dewpoint Depression Visibility Wind Speed Wind Dir Waves Ship Positions

Dan Fighter

Last reported at 2015-Aug-01 13:33 UTC. Time now 2015-Aug-01 13:51 UTC.
Position N 57°57' E 012°06'.

Length 64 m; draft 3.1 m.

Type: Cargo ship. MMSI: 220386978.

Date/timePositionNaut miles runAvg speedWind from/ knotsBaromVisibWave heightAir tempDewpointWater temp
2015-Aug-01 13:33N 57°57' E 012°06'7 6.8
2015-Aug-01 12:33N 57°51' E 012°01'6 5.5
2015-Aug-01 11:34N 57°45' E 011°60'5 4.6
2015-Aug-01 10:34N 57°42' E 011°55'4 4.1
2015-Aug-01 09:32N 57°40' E 011°48'0 0.0
2015-Aug-01 08:32N 57°40' E 011°48'0 0.0
2015-Aug-01 07:32N 57°40' E 011°48'0 0.1
2015-Aug-01 06:34N 57°40' E 011°48'5 5.5
2015-Aug-01 05:33N 57°36' E 011°40'7 6.7
2015-Aug-01 04:34N 57°33' E 011°30'4 4.3
2015-Aug-01 03:33N 57°36' E 011°24'4 4.3
2015-Aug-01 02:33N 57°40' E 011°23'5 4.8
2015-Aug-01 01:33N 57°45' E 011°24'3 3.5
2015-Aug-01 00:33N 57°47' E 011°20'5 4.6
2015-Jul-31 23:34N 57°48' E 011°12'4 4.5
2015-Jul-31 22:33N 57°49' E 011°03'5 5.3
2015-Jul-31 21:33N 57°48' E 010°54'6 5.8
2015-Jul-31 20:33N 57°47' E 010°43'7 6.9
2015-Jul-31 19:33N 57°46' E 010°30'7 6.8
2015-Jul-31 18:33N 57°43' E 010°18'8 7.0
2015-Jul-31 17:29N 57°40' E 010°05'153 6.1
2015-Jul-30 16:32N 55°43' E 007°08'5 5.5
2015-Jul-30 15:32N 55°38' E 007°05'5 5.2
2015-Jul-30 14:33N 55°33' E 007°04'5 5.1
2015-Jul-30 13:33N 55°27' E 007°04'5 5.0
2015-Jul-30 12:33N 55°23' E 007°03'5 4.9
2015-Jul-30 11:34N 55°18' E 007°03'5 5.1
2015-Jul-30 10:33N 55°12' E 007°02'5 5.2
2015-Jul-30 09:33N 55°07' E 007°01'5 5.0
2015-Jul-30 08:33N 55°02' E 007°01'5 4.7
2015-Jul-30 07:33N 54°58' E 006°59'6 5.8
2015-Jul-30 06:34N 54°53' E 006°53'7 6.0
2015-Jul-30 05:29N 54°47' E 006°47'54 5.3
2015-Jul-29 19:21N 54°21' E 005°26'5 6.3
2015-Jul-29 18:32N 54°17' E 005°21'6 6.1
2015-Jul-29 17:33N 54°12' E 005°15'6 5.6
2015-Jul-29 16:33N 54°07' E 005°11'6 5.8
2015-Jul-29 15:33N 54°01' E 005°08'6 6.2
2015-Jul-29 14:33N 53°56' E 005°04'6 6.2
2015-Jul-29 13:34N 53°50' E 004°58'5 5.3
2015-Jul-29 12:32N 53°45' E 004°56'7 5.6
2015-Jul-29 11:16N 53°39' E 004°52'5 5.9
2015-Jul-29 10:29N 53°34' E 004°49'5 5.8
2015-Jul-29 09:34N 53°29' E 004°46'6 6.0
2015-Jul-29 08:33N 53°23' E 004°43'7 6.3
2015-Jul-29 07:25N 53°17' E 004°38'15 6.8
2015-Jul-29 05:15N 53°04' E 004°27'19 7.2
2015-Jul-29 02:32N 52°46' E 004°15'8 7.6
2015-Jul-29 01:33N 52°39' E 004°19'7 7.4
2015-Jul-29 00:33N 52°33' E 004°26'7 6.8
2015-Jul-28 23:33N 52°28' E 004°34'4 4.4
2015-Jul-28 22:33N 52°27' E 004°41'5 5.3
2015-Jul-28 21:32N 52°24' E 004°49'0 0.0
2015-Jul-28 20:32N 52°24' E 004°49'0 0.0
2015-Jul-28 19:32N 52°24' E 004°49'0 0.0
2015-Jul-28 18:32N 52°24' E 004°49'1 0.7
2015-Jul-28 17:34N 52°25' E 004°49'2 2.4
2015-Jul-28 16:32N 52°24' E 004°52'0 0.0
2015-Jul-28 15:32N 52°24' E 004°52'0 0.0
2015-Jul-28 14:32N 52°24' E 004°52'0 0.0
2015-Jul-28 13:32N 52°24' E 004°52'0 0.0
2015-Jul-28 12:32N 52°24' E 004°52'0 0.0
2015-Jul-28 11:32N 52°24' E 004°52'0 0.0
2015-Jul-28 10:32N 52°24' E 004°52'0 0.0
2015-Jul-28 09:32N 52°24' E 004°52'0 0.0
2015-Jul-28 08:32N 52°24' E 004°52'0 0.0
2015-Jul-28 07:32N 52°24' E 004°52'0 0.0
2015-Jul-28 06:32N 52°24' E 004°52'0 0.0
2015-Jul-28 05:31N 52°24' E 004°52'0 0.0
2015-Jul-28 04:32N 52°24' E 004°52'0 0.0
2015-Jul-28 03:31N 52°24' E 004°52'0 0.0
2015-Jul-28 02:32N 52°24' E 004°52'0 0.0
2015-Jul-28 01:31N 52°24' E 004°52'0 0.0
2015-Jul-28 00:32N 52°24' E 004°52'0 0.0
2015-Jul-27 23:32N 52°24' E 004°52'0 0.0
2015-Jul-27 22:32N 52°24' E 004°52'0 0.0
2015-Jul-27 21:32N 52°24' E 004°52'0 0.0
2015-Jul-27 20:31N 52°24' E 004°52'0 0.0
2015-Jul-27 19:31N 52°24' E 004°52'0 0.0
2015-Jul-27 18:31N 52°24' E 004°52'0 0.0
2015-Jul-27 17:31N 52°24' E 004°52'0 0.0
2015-Jul-27 16:32N 52°24' E 004°52'0 0.0
2015-Jul-27 15:32N 52°24' E 004°52'0 0.0
2015-Jul-27 14:32N 52°24' E 004°52'0 0.0
2015-Jul-27 13:32N 52°24' E 004°52'0 0.0
2015-Jul-27 12:31N 52°24' E 004°52'0 0.0
2015-Jul-27 11:32N 52°24' E 004°52'0 0.0
2015-Jul-27 10:32N 52°24' E 004°52'0 0.0
2015-Jul-27 09:32N 52°24' E 004°52'0 0.0
2015-Jul-27 08:32N 52°24' E 004°52'0 0.0
2015-Jul-27 07:31N 52°24' E 004°52'0 0.0
2015-Jul-27 06:32N 52°24' E 004°52'0 0.0
2015-Jul-27 05:31N 52°24' E 004°52'0 0.0
2015-Jul-27 04:32N 52°24' E 004°52'0 0.0
2015-Jul-27 03:32N 52°24' E 004°52'0 0.0
2015-Jul-27 02:32N 52°24' E 004°52'0 0.0
2015-Jul-27 01:31N 52°24' E 004°52'0 0.0
2015-Jul-27 00:31N 52°24' E 004°52'0 0.0
2015-Jul-26 23:32N 52°24' E 004°52'0 0.0
2015-Jul-26 22:32N 52°24' E 004°52'0 0.0
2015-Jul-26 21:32N 52°24' E 004°52'0 0.0
2015-Jul-26 20:31N 52°24' E 004°52'0 0.0
2015-Jul-26 19:32N 52°24' E 004°52'0 0.0
2015-Jul-26 18:32N 52°24' E 004°52'0 0.0
2015-Jul-26 17:32N 52°24' E 004°52'0 0.0
2015-Jul-26 16:32N 52°24' E 004°52'0 0.0
2015-Jul-26 15:32N 52°24' E 004°52'0 0.0
2015-Jul-26 14:32N 52°24' E 004°52'0 0.0
2015-Jul-26 13:32N 52°24' E 004°52'0 0.0
2015-Jul-26 12:31N 52°24' E 004°52'0 0.0
2015-Jul-26 11:31N 52°24' E 004°52'0 0.0
2015-Jul-26 10:32N 52°24' E 004°52'0 0.0
2015-Jul-26 09:32N 52°24' E 004°52'0 0.0
2015-Jul-26 08:32N 52°24' E 004°52'0 0.0
2015-Jul-26 07:32N 52°24' E 004°52'0 0.0
2015-Jul-26 06:32N 52°24' E 004°52'0 0.0
2015-Jul-26 05:31N 52°24' E 004°52'0 0.0
2015-Jul-26 04:31N 52°24' E 004°52'0 0.0
2015-Jul-26 03:32N 52°24' E 004°52'0 0.0
2015-Jul-26 02:31N 52°24' E 004°52'0 0.0
2015-Jul-26 01:31N 52°24' E 004°52'0 0.0
2015-Jul-26 00:32N 52°24' E 004°52'0 0.0
2015-Jul-25 23:32N 52°24' E 004°52'0 0.0
2015-Jul-25 22:32N 52°24' E 004°52'0 0.0
2015-Jul-25 21:31N 52°24' E 004°52'0 0.0
2015-Jul-25 20:32N 52°24' E 004°52'0 0.0
2015-Jul-25 19:32N 52°24' E 004°52'0 0.0
2015-Jul-25 18:31N 52°24' E 004°52'0 0.0
2015-Jul-25 17:31N 52°24' E 004°52'0 0.0
2015-Jul-25 16:31N 52°24' E 004°52'0 0.0
2015-Jul-25 15:31N 52°24' E 004°52'0 0.0
2015-Jul-25 14:32N 52°24' E 004°52'0 0.0
2015-Jul-25 13:32N 52°24' E 004°52'0 0.0
2015-Jul-25 12:32N 52°24' E 004°52'0 0.0
2015-Jul-25 11:31N 52°24' E 004°52'0 0.0
2015-Jul-25 10:32N 52°24' E 004°52'0 0.0
2015-Jul-25 09:31N 52°24' E 004°52'0 0.0
2015-Jul-25 08:32N 52°24' E 004°52'0 0.0
2015-Jul-25 07:31N 52°24' E 004°52'0 0.0
2015-Jul-25 06:31N 52°24' E 004°52'0 0.0
2015-Jul-25 05:32N 52°24' E 004°52'0 0.0
2015-Jul-25 04:32N 52°24' E 004°52'0 0.0
2015-Jul-25 03:31N 52°24' E 004°52'3 3.5
2015-Jul-25 02:34N 52°25' E 004°47'8 7.6
2015-Jul-25 01:34N 52°28' E 004°35'5 5.1
2015-Jul-25 00:34N 52°29' E 004°27'9 8.6
2015-Jul-24 23:33N 52°36' E 004°19'8 8.3
2015-Jul-24 22:33N 52°42' E 004°09'9 8.6
2015-Jul-24 21:33N 52°49' E 003°60'66 9.1
2015-Jul-24 14:18N 53°48' E 004°48'16 8.8
2015-Jul-24 12:32N 54°03' E 004°57'  
Track history (hours):
 
Tides and Currents Weather Stations Pressure Air Temp Water Temp Dewpoint Dewpoint Depression Visibility Wind Speed Wind Dir Waves Ship Positions

Dan Fighter

Last reported at 2015-Aug-01 13:33 UTC. Time now 2015-Aug-01 13:51 UTC.
Position N 57°57' E 012°06'.

Length 64 m; draft 3.1 m.

Type: Cargo ship. MMSI: 220386978.

Date/timePositionNaut miles runAvg speedWind from/ knotsBaromVisibWave heightAir tempDewpointWater temp
2015-Aug-01 13:33N 57°57' E 012°06'7 6.8
2015-Aug-01 12:33N 57°51' E 012°01'6 5.5
2015-Aug-01 11:34N 57°45' E 011°60'5 4.6
2015-Aug-01 10:34N 57°42' E 011°55'4 4.1
2015-Aug-01 09:32N 57°40' E 011°48'0 0.0
2015-Aug-01 08:32N 57°40' E 011°48'0 0.0
2015-Aug-01 07:32N 57°40' E 011°48'0 0.1
2015-Aug-01 06:34N 57°40' E 011°48'5 5.5
2015-Aug-01 05:33N 57°36' E 011°40'7 6.7
2015-Aug-01 04:34N 57°33' E 011°30'4 4.3
2015-Aug-01 03:33N 57°36' E 011°24'4 4.3
2015-Aug-01 02:33N 57°40' E 011°23'5 4.8
2015-Aug-01 01:33N 57°45' E 011°24'3 3.5
2015-Aug-01 00:33N 57°47' E 011°20'5 4.6
2015-Jul-31 23:34N 57°48' E 011°12'4 4.5
2015-Jul-31 22:33N 57°49' E 011°03'5 5.3
2015-Jul-31 21:33N 57°48' E 010°54'6 5.8
2015-Jul-31 20:33N 57°47' E 010°43'7 6.9
2015-Jul-31 19:33N 57°46' E 010°30'7 6.8
2015-Jul-31 18:33N 57°43' E 010°18'8 7.0
2015-Jul-31 17:29N 57°40' E 010°05'153 6.1
2015-Jul-30 16:32N 55°43' E 007°08'5 5.5
2015-Jul-30 15:32N 55°38' E 007°05'5 5.2
2015-Jul-30 14:33N 55°33' E 007°04'5 5.1
2015-Jul-30 13:33N 55°27' E 007°04'5 5.0
2015-Jul-30 12:33N 55°23' E 007°03'5 4.9
2015-Jul-30 11:34N 55°18' E 007°03'5 5.1
2015-Jul-30 10:33N 55°12' E 007°02'5 5.2
2015-Jul-30 09:33N 55°07' E 007°01'5 5.0
2015-Jul-30 08:33N 55°02' E 007°01'5 4.7
2015-Jul-30 07:33N 54°58' E 006°59'6 5.8
2015-Jul-30 06:34N 54°53' E 006°53'7 6.0
2015-Jul-30 05:29N 54°47' E 006°47'54 5.3
2015-Jul-29 19:21N 54°21' E 005°26'5 6.3
2015-Jul-29 18:32N 54°17' E 005°21'6 6.1
2015-Jul-29 17:33N 54°12' E 005°15'6 5.6
2015-Jul-29 16:33N 54°07' E 005°11'6 5.8
2015-Jul-29 15:33N 54°01' E 005°08'6 6.2
2015-Jul-29 14:33N 53°56' E 005°04'6 6.2
2015-Jul-29 13:34N 53°50' E 004°58'5 5.3
2015-Jul-29 12:32N 53°45' E 004°56'7 5.6
2015-Jul-29 11:16N 53°39' E 004°52'5 5.9
2015-Jul-29 10:29N 53°34' E 004°49'5 5.8
2015-Jul-29 09:34N 53°29' E 004°46'6 6.0
2015-Jul-29 08:33N 53°23' E 004°43'7 6.3
2015-Jul-29 07:25N 53°17' E 004°38'15 6.8
2015-Jul-29 05:15N 53°04' E 004°27'19 7.2
2015-Jul-29 02:32N 52°46' E 004°15'8 7.6
2015-Jul-29 01:33N 52°39' E 004°19'7 7.4
2015-Jul-29 00:33N 52°33' E 004°26'7 6.8
2015-Jul-28 23:33N 52°28' E 004°34'4 4.4
2015-Jul-28 22:33N 52°27' E 004°41'5 5.3
2015-Jul-28 21:32N 52°24' E 004°49'0 0.0
2015-Jul-28 20:32N 52°24' E 004°49'0 0.0
2015-Jul-28 19:32N 52°24' E 004°49'0 0.0
2015-Jul-28 18:32N 52°24' E 004°49'1 0.7
2015-Jul-28 17:34N 52°25' E 004°49'2 2.4
2015-Jul-28 16:32N 52°24' E 004°52'0 0.0
2015-Jul-28 15:32N 52°24' E 004°52'0 0.0
2015-Jul-28 14:32N 52°24' E 004°52'0 0.0
2015-Jul-28 13:32N 52°24' E 004°52'0 0.0
2015-Jul-28 12:32N 52°24' E 004°52'0 0.0
2015-Jul-28 11:32N 52°24' E 004°52'0 0.0
2015-Jul-28 10:32N 52°24' E 004°52'0 0.0
2015-Jul-28 09:32N 52°24' E 004°52'0 0.0
2015-Jul-28 08:32N 52°24' E 004°52'0 0.0
2015-Jul-28 07:32N 52°24' E 004°52'0 0.0
2015-Jul-28 06:32N 52°24' E 004°52'0 0.0
2015-Jul-28 05:31N 52°24' E 004°52'0 0.0
2015-Jul-28 04:32N 52°24' E 004°52'0 0.0
2015-Jul-28 03:31N 52°24' E 004°52'0 0.0
2015-Jul-28 02:32N 52°24' E 004°52'0 0.0
2015-Jul-28 01:31N 52°24' E 004°52'0 0.0
2015-Jul-28 00:32N 52°24' E 004°52'0 0.0
2015-Jul-27 23:32N 52°24' E 004°52'0 0.0
2015-Jul-27 22:32N 52°24' E 004°52'0 0.0
2015-Jul-27 21:32N 52°24' E 004°52'0 0.0
2015-Jul-27 20:31N 52°24' E 004°52'0 0.0
2015-Jul-27 19:31N 52°24' E 004°52'0 0.0
2015-Jul-27 18:31N 52°24' E 004°52'0 0.0
2015-Jul-27 17:31N 52°24' E 004°52'0 0.0
2015-Jul-27 16:32N 52°24' E 004°52'0 0.0
2015-Jul-27 15:32N 52°24' E 004°52'0 0.0
2015-Jul-27 14:32N 52°24' E 004°52'0 0.0
2015-Jul-27 13:32N 52°24' E 004°52'0 0.0
2015-Jul-27 12:31N 52°24' E 004°52'0 0.0
2015-Jul-27 11:32N 52°24' E 004°52'0 0.0
2015-Jul-27 10:32N 52°24' E 004°52'0 0.0
2015-Jul-27 09:32N 52°24' E 004°52'0 0.0
2015-Jul-27 08:32N 52°24' E 004°52'0 0.0
2015-Jul-27 07:31N 52°24' E 004°52'0 0.0
2015-Jul-27 06:32N 52°24' E 004°52'0 0.0
2015-Jul-27 05:31N 52°24' E 004°52'0 0.0
2015-Jul-27 04:32N 52°24' E 004°52'0 0.0
2015-Jul-27 03:32N 52°24' E 004°52'0 0.0
2015-Jul-27 02:32N 52°24' E 004°52'0 0.0
2015-Jul-27 01:31N 52°24' E 004°52'0 0.0
2015-Jul-27 00:31N 52°24' E 004°52'0 0.0
2015-Jul-26 23:32N 52°24' E 004°52'0 0.0
2015-Jul-26 22:32N 52°24' E 004°52'0 0.0
2015-Jul-26 21:32N 52°24' E 004°52'0 0.0
2015-Jul-26 20:31N 52°24' E 004°52'0 0.0
2015-Jul-26 19:32N 52°24' E 004°52'0 0.0
2015-Jul-26 18:32N 52°24' E 004°52'0 0.0
2015-Jul-26 17:32N 52°24' E 004°52'0 0.0
2015-Jul-26 16:32N 52°24' E 004°52'0 0.0
2015-Jul-26 15:32N 52°24' E 004°52'0 0.0
2015-Jul-26 14:32N 52°24' E 004°52'0 0.0
2015-Jul-26 13:32N 52°24' E 004°52'0 0.0
2015-Jul-26 12:31N 52°24' E 004°52'0 0.0
2015-Jul-26 11:31N 52°24' E 004°52'0 0.0
2015-Jul-26 10:32N 52°24' E 004°52'0 0.0
2015-Jul-26 09:32N 52°24' E 004°52'0 0.0
2015-Jul-26 08:32N 52°24' E 004°52'0 0.0
2015-Jul-26 07:32N 52°24' E 004°52'0 0.0
2015-Jul-26 06:32N 52°24' E 004°52'0 0.0
2015-Jul-26 05:31N 52°24' E 004°52'0 0.0
2015-Jul-26 04:31N 52°24' E 004°52'0 0.0
2015-Jul-26 03:32N 52°24' E 004°52'0 0.0
2015-Jul-26 02:31N 52°24' E 004°52'0 0.0
2015-Jul-26 01:31N 52°24' E 004°52'0 0.0
2015-Jul-26 00:32N 52°24' E 004°52'0 0.0
2015-Jul-25 23:32N 52°24' E 004°52'0 0.0
2015-Jul-25 22:32N 52°24' E 004°52'0 0.0
2015-Jul-25 21:31N 52°24' E 004°52'0 0.0
2015-Jul-25 20:32N 52°24' E 004°52'0 0.0
2015-Jul-25 19:32N 52°24' E 004°52'0 0.0
2015-Jul-25 18:31N 52°24' E 004°52'0 0.0
2015-Jul-25 17:31N 52°24' E 004°52'0 0.0
2015-Jul-25 16:31N 52°24' E 004°52'0 0.0
2015-Jul-25 15:31N 52°24' E 004°52'0 0.0
2015-Jul-25 14:32N 52°24' E 004°52'0 0.0
2015-Jul-25 13:32N 52°24' E 004°52'0 0.0
2015-Jul-25 12:32N 52°24' E 004°52'0 0.0
2015-Jul-25 11:31N 52°24' E 004°52'0 0.0
2015-Jul-25 10:32N 52°24' E 004°52'0 0.0
2015-Jul-25 09:31N 52°24' E 004°52'0 0.0
2015-Jul-25 08:32N 52°24' E 004°52'0 0.0
2015-Jul-25 07:31N 52°24' E 004°52'0 0.0
2015-Jul-25 06:31N 52°24' E 004°52'0 0.0
2015-Jul-25 05:32N 52°24' E 004°52'0 0.0
2015-Jul-25 04:32N 52°24' E 004°52'0 0.0
2015-Jul-25 03:31N 52°24' E 004°52'3 3.5
2015-Jul-25 02:34N 52°25' E 004°47'8 7.6
2015-Jul-25 01:34N 52°28' E 004°35'5 5.1
2015-Jul-25 00:34N 52°29' E 004°27'9 8.6
2015-Jul-24 23:33N 52°36' E 004°19'8 8.3
2015-Jul-24 22:33N 52°42' E 004°09'9 8.6
2015-Jul-24 21:33N 52°49' E 003°60'66 9.1
2015-Jul-24 14:18N 53°48' E 004°48'16 8.8
2015-Jul-24 12:32N 54°03' E 004°57'  

Dump ship's entire track history